Time;durP1;ratioP1;P1;durP2;ratioP2;P2;SDS_P1;SDS_P2;PMS_P1;PMS_P2;Temp;Humidity;BMP_temperature;BMP_pressure;BME280_temperature;BME280_humidity;BME280_pressure;Samples;Min_cycle;Max_cycle;Signal;HPM_P1;HPM_P2
2024/03/01 00:02:44;;;;;;;32.78;30.45;;;;;;;;;;5064928;28;20106;-55
2024/03/01 00:05:30;;;;;;;30.52;28.02;;;;;;;;;;5062634;28;20546;-56
2024/03/01 00:08:15;;;;;;;29.33;27.48;;;;;;;;;;5061096;28;20078;-54
2024/03/01 00:11:01;;;;;;;33.35;30.83;;;;;;;;;;5049728;28;20595;-52
2024/03/01 00:13:47;;;;;;;30.25;28.40;;;;;;;;;;5061480;28;20370;-53
2024/03/01 00:16:33;;;;;;;29.45;27.77;;;;;;;;;;5064454;28;20040;-56
2024/03/01 00:19:18;;;;;;;30.42;28.48;;;;;;;;;;5062140;28;20468;-52
2024/03/01 00:22:04;;;;;;;30.70;28.67;;;;;;;;;;5061293;28;20041;-52
2024/03/01 00:24:50;;;;;;;29.85;28.05;;;;;;;;;;5061773;28;20303;-54
2024/03/01 00:27:35;;;;;;;30.00;28.27;;;;;;;;;;5062695;28;20032;-50
2024/03/01 00:30:21;;;;;;;29.40;27.67;;;;;;;;;;5061833;28;20033;-51
2024/03/01 00:33:07;;;;;;;30.00;28.25;;;;;;;;;;5064495;28;20032;-53
2024/03/01 00:35:52;;;;;;;30.25;28.45;;;;;;;;;;5050820;28;20111;-54
2024/03/01 00:38:38;;;;;;;30.65;28.88;;;;;;;;;;5060937;28;20037;-51
2024/03/01 00:41:23;;;;;;;31.27;29.08;;;;;;;;;;5048265;28;20080;-51
2024/03/01 00:44:09;;;;;;;31.00;28.98;;;;;;;;;;5059537;28;20072;-50
2024/03/01 00:46:56;;;;;;;29.35;27.48;;;;;;;;;;5062920;28;20150;-50
2024/03/01 00:49:41;;;;;;;29.98;28.17;;;;;;;;;;5063369;28;20637;-49
2024/03/01 00:52:27;;;;;;;31.73;29.58;;;;;;;;;;5062612;28;20040;-49
2024/03/01 00:55:12;;;;;;;32.92;30.65;;;;;;;;;;5062317;28;20051;-50
2024/03/01 00:57:58;;;;;;;32.55;30.45;;;;;;;;;;5067185;28;20509;-54
2024/03/01 01:00:44;;;;;;;31.70;29.83;;;;;;;;;;5064384;28;20037;-52
2024/03/01 01:03:30;;;;;;;32.13;30.27;;;;;;;;;;5062055;28;20757;-53
2024/03/01 01:06:15;;;;;;;33.42;31.25;;;;;;;;;;5063311;28;20098;-52
2024/03/01 01:09:01;;;;;;;31.02;29.23;;;;;;;;;;5064049;28;20105;-59
2024/03/01 01:11:47;;;;;;;31.73;29.90;;;;;;;;;;5064159;28;20045;-61
2024/03/01 01:14:32;;;;;;;32.83;30.75;;;;;;;;;;5062028;28;20055;-60
2024/03/01 01:17:18;;;;;;;31.20;29.02;;;;;;;;;;5060350;28;20041;-59
2024/03/01 01:20:05;;;;;;;28.23;26.52;;;;;;;;;;5059884;28;20040;-61
2024/03/01 01:22:51;;;;;;;30.48;28.67;;;;;;;;;;5062374;28;20047;-61
2024/03/01 01:25:36;;;;;;;26.20;24.65;;;;;;;;;;5059849;28;20049;-61
2024/03/01 01:28:22;;;;;;;26.92;25.33;;;;;;;;;;5051846;28;20138;-61
2024/03/01 01:31:08;;;;;;;27.90;26.20;;;;;;;;;;5063240;28;20032;-61
2024/03/01 01:33:53;;;;;;;29.70;28.00;;;;;;;;;;5064350;28;20079;-61
2024/03/01 01:36:40;;;;;;;35.00;32.60;;;;;;;;;;5062098;28;20532;-61
2024/03/01 01:39:26;;;;;;;35.22;33.17;;;;;;;;;;5063382;28;20377;-61
2024/03/01 01:42:11;;;;;;;36.08;33.58;;;;;;;;;;5065020;28;20519;-60
2024/03/01 01:44:57;;;;;;;33.55;30.95;;;;;;;;;;5066314;28;20167;-60
2024/03/01 01:47:43;;;;;;;33.58;31.65;;;;;;;;;;5061205;28;20127;-61
2024/03/01 01:50:30;;;;;;;33.35;31.23;;;;;;;;;;5064210;28;20036;-60
2024/03/01 01:53:16;;;;;;;30.38;28.42;;;;;;;;;;5065486;28;20033;-61
2024/03/01 01:56:01;;;;;;;36.33;34.05;;;;;;;;;;5064821;28;20095;-61
2024/03/01 01:58:47;;;;;;;33.22;31.25;;;;;;;;;;5066389;28;20351;-61
2024/03/01 02:01:33;;;;;;;30.05;28.30;;;;;;;;;;5075499;28;20268;-61
2024/03/01 02:04:19;;;;;;;35.35;33.33;;;;;;;;;;5064752;28;20036;-61
2024/03/01 02:07:05;;;;;;;33.75;31.85;;;;;;;;;;5062733;28;20037;-62
2024/03/01 02:09:51;;;;;;;37.17;34.78;;;;;;;;;;5063921;28;20036;-61
2024/03/01 02:12:36;;;;;;;33.03;31.05;;;;;;;;;;5066596;28;20036;-61
2024/03/01 02:15:25;;;;;;;38.25;36.05;;;;;;;;;;5068406;28;20199;-61
2024/03/01 02:18:11;;;;;;;37.75;35.42;;;;;;;;;;5066555;28;20044;-61
2024/03/01 02:21:08;;;;;;;37.38;34.67;;;;;;;;;;5070617;28;20041;-60
2024/03/01 02:23:54;;;;;;;39.05;36.70;;;;;;;;;;5067604;28;20052;-60
2024/03/01 02:26:40;;;;;;;38.35;35.92;;;;;;;;;;5053116;28;20463;-61
2024/03/01 02:29:26;;;;;;;42.75;39.95;;;;;;;;;;5061352;28;20102;-61
2024/03/01 02:32:12;;;;;;;38.97;36.90;;;;;;;;;;5065425;28;20040;-61
2024/03/01 02:34:58;;;;;;;40.20;38.00;;;;;;;;;;5067660;28;20449;-53
2024/03/01 02:37:43;;;;;;;39.15;36.95;;;;;;;;;;5064932;28;20044;-54
2024/03/01 02:40:30;;;;;;;43.45;41.00;;;;;;;;;;5065067;28;20136;-56
2024/03/01 02:43:15;;;;;;;32.40;30.48;;;;;;;;;;5064382;28;20050;-51
2024/03/01 02:46:01;;;;;;;29.02;27.23;;;;;;;;;;5065320;28;20044;-52
2024/03/01 02:48:47;;;;;;;31.35;29.25;;;;;;;;;;5064965;28;20047;-55
2024/03/01 02:51:32;;;;;;;32.97;31.17;;;;;;;;;;5064209;28;20119;-53
2024/03/01 02:54:18;;;;;;;34.72;32.65;;;;;;;;;;5064785;28;20473;-52
2024/03/01 02:57:04;;;;;;;35.17;33.08;;;;;;;;;;5054249;28;20118;-55
2024/03/01 02:59:49;;;;;;;34.60;32.40;;;;;;;;;;5051548;28;20037;-54
2024/03/01 03:02:35;;;;;;;34.60;32.28;;;;;;;;;;5064157;28;20047;-54
2024/03/01 03:05:21;;;;;;;36.40;34.40;;;;;;;;;;5061419;28;20490;-53
2024/03/01 03:08:07;;;;;;;37.22;35.08;;;;;;;;;;5063414;28;20668;-51
2024/03/01 03:10:52;;;;;;;39.47;37.25;;;;;;;;;;5064876;28;20036;-53
2024/03/01 03:13:38;;;;;;;36.65;34.60;;;;;;;;;;5061515;28;20135;-54
2024/03/01 03:16:23;;;;;;;33.67;31.70;;;;;;;;;;5062030;28;20036;-53
2024/03/01 03:19:09;;;;;;;34.70;32.83;;;;;;;;;;5065562;28;20044;-50
2024/03/01 03:21:54;;;;;;;33.38;31.55;;;;;;;;;;5065019;28;20473;-52
2024/03/01 03:24:40;;;;;;;33.05;31.15;;;;;;;;;;5064181;28;20048;-52
2024/03/01 03:27:26;;;;;;;33.15;30.98;;;;;;;;;;5064871;28;20097;-53
2024/03/01 03:30:12;;;;;;;32.38;30.40;;;;;;;;;;5053904;28;20159;-54
2024/03/01 03:32:57;;;;;;;31.67;29.90;;;;;;;;;;5066988;28;20059;-51
2024/03/01 03:35:43;;;;;;;34.28;32.35;;;;;;;;;;5065805;28;20382;-52
2024/03/01 03:38:29;;;;;;;33.38;31.38;;;;;;;;;;5068091;28;20032;-53
2024/03/01 03:41:14;;;;;;;37.67;35.55;;;;;;;;;;5067930;28;20063;-53
2024/03/01 03:44:00;;;;;;;41.63;38.47;;;;;;;;;;5067758;28;20044;-53
2024/03/01 03:46:47;;;;;;;46.38;43.78;;;;;;;;;;5049795;28;20125;-54
2024/03/01 03:49:33;;;;;;;45.70;43.20;;;;;;;;;;5071234;28;20143;-53
2024/03/01 03:52:19;;;;;;;48.65;45.88;;;;;;;;;;5065725;28;20040;-54
2024/03/01 03:55:06;;;;;;;41.22;39.03;;;;;;;;;;5061383;28;20111;-55
2024/03/01 03:57:51;;;;;;;37.55;35.33;;;;;;;;;;5062675;28;20475;-55
2024/03/01 04:00:37;;;;;;;36.75;34.55;;;;;;;;;;5063088;28;20694;-55
2024/03/01 04:03:23;;;;;;;30.58;28.88;;;;;;;;;;5065435;28;20130;-55
2024/03/01 04:06:09;;;;;;;31.90;30.02;;;;;;;;;;5065811;28;20040;-54
2024/03/01 04:08:55;;;;;;;29.65;27.92;;;;;;;;;;5062904;28;20165;-53
2024/03/01 04:11:41;;;;;;;32.20;30.42;;;;;;;;;;5063670;28;20036;-55
2024/03/01 04:14:26;;;;;;;33.85;32.00;;;;;;;;;;5061385;28;20128;-55
2024/03/01 04:17:12;;;;;;;37.65;35.58;;;;;;;;;;5055497;28;20337;-55
2024/03/01 04:19:58;;;;;;;35.00;32.97;;;;;;;;;;5062698;28;20040;-50
2024/03/01 04:22:44;;;;;;;38.08;35.92;;;;;;;;;;5066191;28;20610;-50
2024/03/01 04:25:31;;;;;;;37.00;34.88;;;;;;;;;;5063512;28;20067;-51
2024/03/01 04:28:18;;;;;;;35.58;33.53;;;;;;;;;;5061882;28;20238;-53
2024/03/01 04:31:04;;;;;;;38.20;35.95;;;;;;;;;;5066092;28;20040;-54
2024/03/01 04:33:51;;;;;;;36.50;34.30;;;;;;;;;;5064227;28;20049;-54
2024/03/01 04:36:40;;;;;;;36.88;34.85;;;;;;;;;;5065513;28;20130;-53
2024/03/01 04:39:26;;;;;;;44.47;42.08;;;;;;;;;;5061669;28;20045;-54
2024/03/01 04:42:11;;;;;;;46.80;44.30;;;;;;;;;;5065195;28;20032;-56
2024/03/01 04:44:57;;;;;;;48.78;46.03;;;;;;;;;;5064336;28;20651;-55
2024/03/01 04:47:42;;;;;;;50.88;48.15;;;;;;;;;;5062451;28;20375;-52
2024/03/01 04:50:28;;;;;;;49.33;46.67;;;;;;;;;;5061521;28;20051;-52
2024/03/01 04:53:14;;;;;;;48.47;45.75;;;;;;;;;;5062466;28;20032;-55
2024/03/01 04:55:59;;;;;;;45.50;43.03;;;;;;;;;;5063211;28;20521;-55
2024/03/01 04:58:45;;;;;;;37.22;35.10;;;;;;;;;;5054348;28;20048;-54
2024/03/01 05:01:30;;;;;;;36.92;34.92;;;;;;;;;;5063257;28;20163;-54
2024/03/01 05:04:16;;;;;;;33.88;31.60;;;;;;;;;;5066411;28;20043;-51
2024/03/01 05:07:02;;;;;;;35.15;33.15;;;;;;;;;;5050572;28;20152;-52
2024/03/01 05:09:48;;;;;;;41.08;38.53;;;;;;;;;;5068888;28;20075;-52
2024/03/01 05:12:43;;;;;;;40.53;38.08;;;;;;;;;;5065620;28;20046;-52
2024/03/01 05:15:29;;;;;;;38.88;36.67;;;;;;;;;;5066639;28;20036;-53
2024/03/01 05:18:15;;;;;;;42.45;40.05;;;;;;;;;;5065173;28;20037;-55
2024/03/01 05:21:00;;;;;;;40.67;38.40;;;;;;;;;;5067533;28;20036;-49
2024/03/01 05:23:46;;;;;;;45.95;43.38;;;;;;;;;;5062173;28;20072;-54
2024/03/01 05:26:32;;;;;;;46.17;43.58;;;;;;;;;;5052045;28;20043;-54
2024/03/01 05:29:19;;;;;;;46.15;43.67;;;;;;;;;;5061810;28;20045;-53
2024/03/01 05:32:05;;;;;;;50.63;47.80;;;;;;;;;;5067238;28;20393;-54
2024/03/01 05:34:51;;;;;;;54.30;51.00;;;;;;;;;;5062664;28;20102;-54
2024/03/01 05:37:37;;;;;;;44.08;41.65;;;;;;;;;;5064610;28;20048;-52
2024/03/01 05:40:23;;;;;;;42.97;40.53;;;;;;;;;;5064977;28;20051;-56
2024/03/01 05:43:09;;;;;;;43.03;40.53;;;;;;;;;;5047828;28;20083;-55
2024/03/01 05:45:56;;;;;;;43.60;41.28;;;;;;;;;;5050251;28;20048;-53
2024/03/01 05:48:42;;;;;;;49.17;44.25;;;;;;;;;;5045314;28;20402;-53
2024/03/01 05:51:27;;;;;;;46.28;43.60;;;;;;;;;;5063938;28;20067;-54
2024/03/01 05:54:13;;;;;;;47.47;44.88;;;;;;;;;;5064152;28;20425;-54
2024/03/01 05:56:58;;;;;;;47.40;44.17;;;;;;;;;;5061440;28;20044;-52
2024/03/01 05:59:44;;;;;;;46.20;43.63;;;;;;;;;;5052091;28;20491;-53
2024/03/01 06:02:30;;;;;;;48.85;46.13;;;;;;;;;;5061212;28;20170;-53
2024/03/01 06:05:16;;;;;;;45.35;42.83;;;;;;;;;;5049793;28;20043;-53
2024/03/01 06:08:01;;;;;;;39.45;37.25;;;;;;;;;;5060706;28;20441;-53
2024/03/01 06:10:47;;;;;;;38.97;36.35;;;;;;;;;;5061747;28;20045;-54
2024/03/01 06:13:33;;;;;;;33.63;31.73;;;;;;;;;;5062760;28;20034;-53
2024/03/01 06:16:18;;;;;;;39.15;36.50;;;;;;;;;;5062231;28;20101;-54
2024/03/01 06:19:05;;;;;;;37.92;35.70;;;;;;;;;;5062242;28;20120;-54
2024/03/01 06:21:52;;;;;;;37.60;35.22;;;;;;;;;;5059828;28;20040;-49
2024/03/01 06:24:38;;;;;;;34.75;32.72;;;;;;;;;;5060232;28;20371;-51
2024/03/01 06:27:23;;;;;;;35.13;32.90;;;;;;;;;;5062157;28;20114;-53
2024/03/01 06:30:09;;;;;;;33.78;31.85;;;;;;;;;;5062196;28;20048;-55
2024/03/01 06:32:57;;;;;;;37.33;34.67;;;;;;;;;;5068178;28;20046;-53
2024/03/01 06:35:42;;;;;;;37.45;35.33;;;;;;;;;;5066762;28;20036;-51
2024/03/01 06:38:28;;;;;;;34.03;32.15;;;;;;;;;;5054672;28;20055;-53
2024/03/01 06:41:13;;;;;;;34.03;32.13;;;;;;;;;;5065295;28;20040;-54
2024/03/01 06:43:59;;;;;;;36.13;33.85;;;;;;;;;;5069980;28;20492;-54
2024/03/01 06:46:44;;;;;;;38.03;35.60;;;;;;;;;;5052580;28;20055;-50
2024/03/01 06:49:30;;;;;;;38.22;36.00;;;;;;;;;;5068185;28;20104;-54
2024/03/01 06:52:16;;;;;;;38.10;35.70;;;;;;;;;;5065592;28;20101;-53
2024/03/01 06:55:01;;;;;;;36.78;34.28;;;;;;;;;;5067250;28;20036;-52
2024/03/01 06:57:47;;;;;;;36.40;34.28;;;;;;;;;;5067574;28;20041;-52
2024/03/01 07:00:34;;;;;;;35.00;32.92;;;;;;;;;;5066150;28;20047;-53
2024/03/01 07:03:20;;;;;;;37.97;35.58;;;;;;;;;;5066021;28;20086;-53
2024/03/01 07:06:05;;;;;;;36.70;34.30;;;;;;;;;;5055857;28;20041;-53
2024/03/01 07:08:51;;;;;;;41.63;38.78;;;;;;;;;;5062878;28;20149;-53
2024/03/01 07:11:36;;;;;;;36.55;34.53;;;;;;;;;;5066764;28;20045;-54
2024/03/01 07:14:22;;;;;;;39.53;37.08;;;;;;;;;;5066709;28;20040;-52
2024/03/01 07:17:08;;;;;;;38.38;36.25;;;;;;;;;;5067356;28;20048;-52
2024/03/01 07:19:53;;;;;;;36.60;34.40;;;;;;;;;;5060567;28;20032;-52
2024/03/01 07:22:39;;;;;;;36.08;33.88;;;;;;;;;;5063783;28;20101;-54
2024/03/01 07:25:25;;;;;;;36.40;34.15;;;;;;;;;;5064272;28;20509;-54
2024/03/01 07:28:11;;;;;;;33.83;31.83;;;;;;;;;;5063184;28;20106;-55
2024/03/01 07:30:56;;;;;;;33.15;31.15;;;;;;;;;;5066626;28;20033;-55
2024/03/01 07:33:42;;;;;;;36.38;33.13;;;;;;;;;;5061750;28;20189;-54
2024/03/01 07:36:28;;;;;;;36.50;34.22;;;;;;;;;;5064021;28;20051;-55
2024/03/01 07:39:13;;;;;;;34.97;32.92;;;;;;;;;;5064168;28;20063;-55
2024/03/01 07:41:59;;;;;;;37.15;34.75;;;;;;;;;;5065630;28;20430;-54
2024/03/01 07:44:44;;;;;;;37.80;35.60;;;;;;;;;;5064049;28;20044;-55
2024/03/01 07:47:31;;;;;;;35.95;33.75;;;;;;;;;;5063432;28;20394;-53
2024/03/01 07:50:17;;;;;;;37.80;35.05;;;;;;;;;;5064426;28;20073;-55
2024/03/01 07:53:02;;;;;;;37.35;35.00;;;;;;;;;;5062964;28;20032;-52
2024/03/01 07:55:48;;;;;;;41.33;38.65;;;;;;;;;;5065061;28;20123;-54
2024/03/01 07:58:34;;;;;;;48.58;45.45;;;;;;;;;;5066366;28;20536;-53
2024/03/01 08:01:19;;;;;;;49.05;45.90;;;;;;;;;;5050970;28;20542;-53
2024/03/01 08:04:05;;;;;;;46.90;44.08;;;;;;;;;;5065195;28;20048;-55
2024/03/01 08:06:51;;;;;;;48.78;46.03;;;;;;;;;;5062016;28;21279;-54
2024/03/01 08:09:40;;;;;;;45.03;42.45;;;;;;;;;;5062068;28;20032;-54
2024/03/01 08:12:26;;;;;;;45.90;43.40;;;;;;;;;;5061518;28;20050;-61
2024/03/01 08:15:22;;;;;;;42.72;40.25;;;;;;;;;;5057646;28;20032;-62
2024/03/01 08:18:21;;;;;;;141.93;132.38;;;;;;;;;;5058552;28;20474;-62
2024/03/01 08:21:07;;;;;;;82.53;77.90;;;;;;;;;;5062474;28;20471;-61
2024/03/01 08:23:52;;;;;;;78.22;73.70;;;;;;;;;;5059245;28;20062;-62
2024/03/01 08:26:38;;;;;;;38.08;35.58;;;;;;;;;;5060999;28;20043;-61
2024/03/01 08:29:25;;;;;;;39.30;36.72;;;;;;;;;;5059023;28;20124;-62
2024/03/01 08:32:40;;;;;;;42.33;39.65;;;;;;;;;;5063081;28;20437;-61
2024/03/01 08:35:26;;;;;;;42.33;39.35;;;;;;;;;;5063424;28;20171;-61
2024/03/01 08:38:39;;;;;;;39.10;36.00;;;;;;;;;;5061567;28;20359;-63
2024/03/01 08:41:26;;;;;;;56.80;52.42;;;;;;;;;;5060512;28;20033;-63
2024/03/01 08:44:42;;;;;;;64.07;60.38;;;;;;;;;;5061432;28;20040;-63
2024/03/01 08:47:30;;;;;;;61.60;58.17;;;;;;;;;;5063707;28;20543;-63
2024/03/01 08:50:28;;;;;;;50.28;47.45;;;;;;;;;;5058990;28;20068;-63
2024/03/01 08:53:42;;;;;;;38.63;34.88;;;;;;;;;;5061279;28;20538;-63
2024/03/01 08:56:35;;;;;;;31.27;29.00;;;;;;;;;;5060601;28;20068;-63
2024/03/01 08:59:42;;;;;;;30.23;28.27;;;;;;;;;;5062865;28;20040;-54
2024/03/01 09:02:40;;;;;;;26.85;25.17;;;;;;;;;;5059313;28;20178;-55
2024/03/01 09:05:27;;;;;;;28.77;26.98;;;;;;;;;;5061902;28;20076;-56
2024/03/01 09:08:18;;;;;;;30.80;28.88;;;;;;;;;;5058552;28;20032;-56
2024/03/01 09:11:04;;;;;;;34.55;31.48;;;;;;;;;;5062181;28;20119;-56
2024/03/01 09:13:50;;;;;;;29.10;27.25;;;;;;;;;;5062679;28;20048;-55
2024/03/01 09:16:35;;;;;;;30.50;28.50;;;;;;;;;;5059175;28;20059;-56
2024/03/01 09:19:23;;;;;;;38.30;31.55;;;;;;;;;;5063995;28;20190;-56
2024/03/01 09:22:09;;;;;;;32.58;30.75;;;;;;;;;;5057242;28;20037;-57
2024/03/01 09:24:54;;;;;;;32.72;30.73;;;;;;;;;;5062229;28;20040;-56
2024/03/01 09:27:40;;;;;;;32.95;30.65;;;;;;;;;;5062838;28;20114;-56
2024/03/01 09:30:26;;;;;;;36.65;34.42;;;;;;;;;;5060549;28;20036;-56
2024/03/01 09:33:14;;;;;;;34.22;32.20;;;;;;;;;;5062362;28;20163;-57
2024/03/01 09:36:00;;;;;;;34.40;32.13;;;;;;;;;;5057888;28;20051;-57
2024/03/01 09:38:51;;;;;;;31.10;29.10;;;;;;;;;;5059217;28;20647;-57
2024/03/01 09:41:55;;;;;;;33.08;30.88;;;;;;;;;;5057886;28;20719;-56
2024/03/01 09:44:53;;;;;;;31.65;29.75;;;;;;;;;;5060063;28;20040;-56
2024/03/01 09:48:05;;;;;;;32.40;30.02;;;;;;;;;;5062482;28;20127;-56
2024/03/01 09:50:50;;;;;;;;;;;;;;;;;;5061968;28;20033;-56
2024/03/01 09:53:57;;;;;;;28.40;26.60;;;;;;;;;;5057899;28;20011;-55
2024/03/01 09:57:03;;;;;;;33.78;31.75;;;;;;;;;;5049280;28;20053;-56
2024/03/01 10:00:04;;;;;;;33.13;31.17;;;;;;;;;;5056519;28;20111;-56
2024/03/01 10:02:56;;;;;;;;;;;;;;;;;;5058214;28;20051;-57
2024/03/01 10:06:00;;;;;;;;;;;;;;;;;;5056240;28;19990;-57
2024/03/01 10:09:00;;;;;;;31.75;30.02;;;;;;;;;;5056855;28;20409;-57
2024/03/01 10:12:19;;;;;;;37.13;34.85;;;;;;;;;;5066628;28;20037;-57
2024/03/01 10:15:19;;;;;;;40.90;37.60;;;;;;;;;;5062967;28;20527;-57
2024/03/01 10:18:28;;;;;;;39.92;37.53;;;;;;;;;;5066422;28;20477;-56
2024/03/01 10:21:33;;;;;;;41.15;38.65;;;;;;;;;;5039804;28;20052;-55
2024/03/01 10:24:22;;;;;;;40.78;38.50;;;;;;;;;;5063935;28;20494;-56
2024/03/01 10:27:20;;;;;;;43.60;41.08;;;;;;;;;;5062129;28;20279;-57
2024/03/01 10:30:18;;;;;;;42.42;40.20;;;;;;;;;;5062998;28;20056;-57
2024/03/01 10:33:35;;;;;;;40.20;38.00;;;;;;;;;;5065200;28;20047;-57
2024/03/01 10:36:25;;;;;;;41.78;39.35;;;;;;;;;;5061230;28;20036;-58
2024/03/01 10:39:35;;;;;;;43.25;40.72;;;;;;;;;;5065740;28;20052;-56
2024/03/01 10:42:25;;;;;;;41.97;39.67;;;;;;;;;;5065762;28;20068;-55
2024/03/01 10:45:20;;;;;;;44.47;42.08;;;;;;;;;;5077845;28;20041;-56
2024/03/01 10:48:05;;;;;;;40.90;38.70;;;;;;;;;;5066753;28;20032;-56
2024/03/01 10:51:00;;;;;;;36.45;34.42;;;;;;;;;;5065056;28;20037;-58
2024/03/01 10:53:50;;;;;;;36.40;34.33;;;;;;;;;;5070220;28;20048;-56
2024/03/01 10:56:36;;;;;;;40.28;37.65;;;;;;;;;;5066948;28;20485;-57
2024/03/01 10:59:34;;;;;;;41.28;38.55;;;;;;;;;;5067035;28;20232;-56
2024/03/01 11:02:28;;;;;;;34.60;32.70;;;;;;;;;;5063631;28;20078;-57
2024/03/01 11:05:39;;;;;;;34.90;32.90;;;;;;;;;;5069286;28;20075;-60
2024/03/01 11:08:37;;;;;;;36.10;33.95;;;;;;;;;;5064636;28;20483;-56
2024/03/01 11:11:36;;;;;;;36.80;34.80;;;;;;;;;;5069864;28;20044;-56
2024/03/01 11:14:25;;;;;;;36.85;34.63;;;;;;;;;;5065117;28;20555;-56
2024/03/01 11:17:11;;;;;;;37.40;35.40;;;;;;;;;;5062519;28;20062;-57
2024/03/01 11:20:10;;;;;;;40.25;38.00;;;;;;;;;;5066640;28;20036;-56
2024/03/01 11:23:04;;;;;;;35.92;33.90;;;;;;;;;;5062951;28;20484;-57
2024/03/01 11:26:16;;;;;;;38.83;36.63;;;;;;;;;;5065093;28;20058;-55
2024/03/01 11:29:05;;;;;;;43.50;41.17;;;;;;;;;;5062057;28;20236;-57
2024/03/01 11:31:54;;;;;;;44.80;42.40;;;;;;;;;;5063667;28;20405;-57
2024/03/01 11:34:47;;;;;;;46.53;43.85;;;;;;;;;;5063282;28;20044;-56
2024/03/01 11:37:50;;;;;;;44.05;41.75;;;;;;;;;;5064007;28;20505;-56
2024/03/01 11:41:01;;;;;;;46.65;43.75;;;;;;;;;;5063081;28;20069;-53
2024/03/01 11:44:17;;;;;;;47.90;45.40;;;;;;;;;;5062583;28;20041;-57
2024/03/01 11:47:18;;;;;;;45.85;43.38;;;;;;;;;;5062385;28;20032;-55
2024/03/01 11:50:09;;;;;;;45.40;42.97;;;;;;;;;;5057398;28;20025;-57
2024/03/01 11:53:29;;;;;;;42.55;40.33;;;;;;;;;;5063564;28;20830;-56
2024/03/01 11:56:56;;;;;;;39.30;37.20;;;;;;;;;;5063826;28;20477;-55
2024/03/01 12:00:13;;;;;;;32.60;30.90;;;;;;;;;;5063677;28;20535;-63
2024/03/01 12:03:17;;;;;;;29.00;27.40;;;;;;;;;;5052453;28;20044;-63
2024/03/01 12:06:19;;;;;;;26.10;24.70;;;;;;;;;;5059985;28;20127;-64
2024/03/01 12:09:28;;;;;;;29.73;28.13;;;;;;;;;;5062841;28;20040;-63
2024/03/01 12:12:46;;;;;;;26.65;25.25;;;;;;;;;;5050032;28;20113;-64
2024/03/01 12:16:04;;;;;;;26.52;25.13;;;;;;;;;;5060294;28;20557;-64
2024/03/01 12:18:58;;;;;;;27.48;26.08;;;;;;;;;;5064578;28;20363;-64
2024/03/01 12:22:05;;;;;;;25.27;23.98;;;;;;;;;;5061179;28;20044;-63
2024/03/01 12:24:52;;;;;;;27.13;25.73;;;;;;;;;;5060960;28;20047;-63
2024/03/01 12:28:00;;;;;;;24.83;23.52;;;;;;;;;;5063050;28;20036;-62
2024/03/01 12:30:59;;;;;;;24.98;23.67;;;;;;;;;;5067817;28;20094;-63
2024/03/01 12:33:54;;;;;;;24.17;22.88;;;;;;;;;;5063113;28;20070;-63
2024/03/01 12:37:02;;;;;;;24.98;23.67;;;;;;;;;;5062658;28;20063;-63
2024/03/01 12:40:04;;;;;;;26.75;25.35;;;;;;;;;;5064222;28;20055;-64
2024/03/01 12:43:19;;;;;;;26.05;24.65;;;;;;;;;;5062110;28;20505;-64
2024/03/01 12:46:33;;;;;;;28.88;27.38;;;;;;;;;;5064468;28;20127;-63
2024/03/01 12:49:29;;;;;;;31.13;29.52;;;;;;;;;;5062822;28;20067;-64
2024/03/01 12:52:26;;;;;;;30.85;29.25;;;;;;;;;;5059972;28;20107;-64
2024/03/01 12:55:38;;;;;;;29.65;28.08;;;;;;;;;;5059451;28;20542;-63
2024/03/01 12:58:34;;;;;;;27.75;26.27;;;;;;;;;;5061767;28;20111;-63
2024/03/01 13:01:34;;;;;;;28.20;26.70;;;;;;;;;;5047814;28;20041;-64
2024/03/01 13:04:31;;;;;;;29.65;28.05;;;;;;;;;;5057230;28;20142;-64
2024/03/01 13:07:17;;;;;;;26.55;25.15;;;;;;;;;;5062428;28;20194;-64
2024/03/01 13:10:04;;;;;;;27.35;25.95;;;;;;;;;;5061477;28;20470;-63
2024/03/01 13:12:56;;;;;;;28.92;27.42;;;;;;;;;;5064273;28;20170;-64
2024/03/01 13:16:05;;;;;;;25.38;24.08;;;;;;;;;;5063023;28;20041;-64
2024/03/01 13:18:54;;;;;;;30.38;28.77;;;;;;;;;;5066124;28;20051;-66
2024/03/01 13:21:57;;;;;;;35.92;34.10;;;;;;;;;;5061313;28;20047;-64
2024/03/01 13:24:58;;;;;;;31.92;30.25;;;;;;;;;;5057960;28;20040;-64
2024/03/01 13:28:16;;;;;;;36.05;34.00;;;;;;;;;;5063527;28;20129;-64
2024/03/01 13:31:09;;;;;;;36.95;35.05;;;;;;;;;;5060898;28;20474;-59
2024/03/01 13:33:58;;;;;;;33.38;31.65;;;;;;;;;;5063404;28;20045;-58
2024/03/01 13:36:50;;;;;;;32.58;30.88;;;;;;;;;;5060130;28;20077;-59
2024/03/01 13:39:47;;;;;;;33.00;31.30;;;;;;;;;;5053593;28;20044;-63
2024/03/01 13:42:42;;;;;;;25.17;23.88;;;;;;;;;;5050492;28;20084;-64
2024/03/01 13:45:32;;;;;;;33.22;31.52;;;;;;;;;;5064252;28;20056;-64
2024/03/01 13:48:21;;;;;;;30.95;29.23;;;;;;;;;;5062887;28;20065;-64
2024/03/01 13:51:07;;;;;;;36.45;34.45;;;;;;;;;;5054880;28;20040;-64
2024/03/01 13:53:54;;;;;;;37.35;35.45;;;;;;;;;;5068976;28;20040;-64
2024/03/01 13:56:40;;;;;;;36.45;34.58;;;;;;;;;;5067346;28;20193;-63
2024/03/01 13:59:26;;;;;;;38.05;36.10;;;;;;;;;;5069760;28;20134;-64
2024/03/01 14:02:12;;;;;;;33.42;31.65;;;;;;;;;;5061336;28;20119;-64
2024/03/01 14:05:01;;;;;;;30.98;29.35;;;;;;;;;;5064386;28;20040;-63
2024/03/01 14:07:48;;;;;;;34.17;32.30;;;;;;;;;;5064662;28;20041;-64
2024/03/01 14:10:36;;;;;;;34.05;32.30;;;;;;;;;;5067481;28;20025;-64
2024/03/01 14:13:23;;;;;;;34.47;32.67;;;;;;;;;;5064005;28;20527;-64
2024/03/01 14:16:10;;;;;;;32.45;30.77;;;;;;;;;;5060333;28;20569;-59
2024/03/01 14:18:56;;;;;;;34.35;32.55;;;;;;;;;;5048162;28;20141;-63
2024/03/01 14:21:43;;;;;;;32.30;30.60;;;;;;;;;;5058236;28;20051;-64
2024/03/01 14:24:28;;;;;;;35.30;33.50;;;;;;;;;;5056203;28;20046;-59
2024/03/01 14:27:14;;;;;;;37.60;35.70;;;;;;;;;;5061237;28;20056;-63
2024/03/01 14:30:04;;;;;;;37.33;35.35;;;;;;;;;;5061628;28;20719;-64
2024/03/01 14:33:28;;;;;;;35.75;33.92;;;;;;;;;;5061855;28;20067;-64
2024/03/01 14:36:14;;;;;;;36.58;34.67;;;;;;;;;;5054233;28;20043;-64
2024/03/01 14:38:59;;;;;;;34.03;32.28;;;;;;;;;;5055873;28;20082;-63
2024/03/01 14:41:45;;;;;;;34.60;32.80;;;;;;;;;;5061599;28;20040;-64
2024/03/01 14:44:31;;;;;;;36.67;34.78;;;;;;;;;;5061940;28;20550;-64
2024/03/01 14:47:22;;;;;;;38.40;36.38;;;;;;;;;;5063313;28;20044;-64
2024/03/01 14:50:18;;;;;;;35.65;33.85;;;;;;;;;;5067821;28;20558;-63
2024/03/01 14:53:14;;;;;;;36.08;34.22;;;;;;;;;;5052363;28;20044;-64
2024/03/01 14:56:00;;;;;;;35.55;33.75;;;;;;;;;;5063902;28;20068;-64
2024/03/01 14:58:46;;;;;;;34.88;33.08;;;;;;;;;;5069180;28;20046;-64
2024/03/01 15:01:32;;;;;;;40.72;38.63;;;;;;;;;;5062654;28;20291;-64
2024/03/01 15:04:19;;;;;;;34.53;32.72;;;;;;;;;;5065740;28;20570;-64
2024/03/01 15:07:07;;;;;;;37.20;35.30;;;;;;;;;;5064886;28;20327;-64
2024/03/01 15:09:53;;;;;;;34.97;33.17;;;;;;;;;;5066204;28;20028;-63
2024/03/01 15:12:39;;;;;;;38.88;36.88;;;;;;;;;;5066852;28;20039;-64
2024/03/01 15:15:26;;;;;;;37.50;35.60;;;;;;;;;;5065269;28;20048;-63
2024/03/01 15:18:12;;;;;;;36.70;34.80;;;;;;;;;;5064264;28;20032;-63
2024/03/01 15:20:57;;;;;;;42.40;40.25;;;;;;;;;;5064115;28;20461;-62
2024/03/01 15:23:43;;;;;;;38.10;36.17;;;;;;;;;;5065269;28;20094;-63
2024/03/01 15:26:29;;;;;;;39.80;37.80;;;;;;;;;;5063012;28;20094;-63
2024/03/01 15:29:15;;;;;;;40.40;38.33;;;;;;;;;;5063085;28;20147;-63
2024/03/01 15:32:01;;;;;;;37.50;35.60;;;;;;;;;;5064381;28;20073;-63
2024/03/01 15:34:46;;;;;;;40.58;38.47;;;;;;;;;;5054778;28;20154;-64
2024/03/01 15:37:33;;;;;;;44.95;42.65;;;;;;;;;;5066540;28;20037;-63
2024/03/01 15:40:20;;;;;;;53.53;50.83;;;;;;;;;;5069008;28;20029;-63
2024/03/01 15:43:06;;;;;;;41.63;39.47;;;;;;;;;;5065025;28;20469;-63
2024/03/01 15:45:51;;;;;;;48.08;45.67;;;;;;;;;;5066790;28;20117;-63
2024/03/01 15:48:37;;;;;;;53.15;50.45;;;;;;;;;;5064011;28;20028;-63
2024/03/01 15:51:25;;;;;;;49.78;47.22;;;;;;;;;;5065129;28;20118;-63
2024/03/01 15:54:13;;;;;;;43.35;41.15;;;;;;;;;;5065691;28;20043;-63
2024/03/01 15:56:58;;;;;;;47.15;44.75;;;;;;;;;;5064580;28;20079;-63
2024/03/01 15:59:44;;;;;;;54.22;51.50;;;;;;;;;;5065076;28;20109;-63
2024/03/01 16:02:31;;;;;;;47.72;45.33;;;;;;;;;;5061454;28;20110;-63
2024/03/01 16:05:17;;;;;;;47.65;45.25;;;;;;;;;;5063681;28;20646;-62
2024/03/01 16:08:03;;;;;;;51.22;48.63;;;;;;;;;;5061046;28;20387;-63
2024/03/01 16:10:53;;;;;;;45.40;43.10;;;;;;;;;;5064057;28;20115;-63
2024/03/01 16:13:39;;;;;;;56.88;54.03;;;;;;;;;;5064595;28;20113;-63
2024/03/01 16:16:25;;;;;;;60.10;57.05;;;;;;;;;;5060033;28;20553;-63
2024/03/01 16:19:11;;;;;;;53.85;51.13;;;;;;;;;;5061852;28;20113;-62
2024/03/01 16:21:57;;;;;;;60.83;57.63;;;;;;;;;;5062008;28;20043;-62
2024/03/01 16:24:45;;;;;;;62.55;59.42;;;;;;;;;;5066916;28;20079;-62
2024/03/01 16:27:32;;;;;;;63.88;60.65;;;;;;;;;;5061506;28;20197;-63
2024/03/01 16:30:28;;;;;;;62.17;59.05;;;;;;;;;;5065349;28;20039;-62
2024/03/01 16:33:17;;;;;;;64.43;61.13;;;;;;;;;;5063318;28;20049;-63